createdAt,value
2018-07-02T00:00:23.618Z,23.11
2018-07-02T00:01:23.604Z,23.11
2018-07-02T00:02:23.575Z,22.96
2018-07-02T00:03:23.565Z,22.96
2018-07-02T00:04:23.512Z,22.87
2018-07-02T00:05:23.490Z,22.89
2018-07-02T00:06:23.443Z,22.84
2018-07-02T00:07:23.416Z,22.90
2018-07-02T00:08:23.382Z,22.84
2018-07-02T00:09:23.372Z,22.97
2018-07-02T00:10:23.321Z,22.92
2018-07-02T00:11:23.318Z,22.92
2018-07-02T00:12:23.269Z,22.87
2018-07-02T00:13:23.234Z,22.92
2018-07-02T00:14:23.231Z,22.92
2018-07-02T00:15:23.227Z,22.89
2018-07-02T00:16:23.153Z,22.80
2018-07-02T00:17:23.129Z,22.84
2018-07-02T00:18:23.079Z,22.83
2018-07-02T00:19:23.062Z,22.80
2018-07-02T00:20:23.022Z,22.72
2018-07-02T00:21:23.077Z,22.78
2018-07-02T00:22:23.015Z,22.77
2018-07-02T00:23:22.938Z,22.67
2018-07-02T00:24:22.904Z,22.64
2018-07-02T00:25:23.028Z,22.56
2018-07-02T00:26:22.855Z,22.49
2018-07-02T00:27:22.838Z,22.56
2018-07-02T00:28:22.782Z,22.50
2018-07-02T00:29:22.778Z,22.57
2018-07-02T00:30:22.727Z,22.56
2018-07-02T00:31:22.866Z,22.65
2018-07-02T00:32:22.742Z,22.54
2018-07-02T00:33:22.655Z,22.50
2018-07-02T00:34:22.619Z,22.53
2018-07-02T00:35:22.586Z,22.54
2018-07-02T00:36:22.568Z,22.52
2018-07-02T00:37:22.517Z,22.50
2018-07-02T00:38:22.548Z,22.62
2018-07-02T00:39:22.463Z,22.50
2018-07-02T00:40:22.433Z,22.49
2018-07-02T00:41:22.395Z,22.59
2018-07-02T00:42:22.571Z,22.52
2018-07-02T00:43:22.345Z,22.44
2018-07-02T00:44:22.309Z,22.50
2018-07-02T00:45:22.285Z,22.53
2018-07-02T00:46:22.249Z,22.54
2018-07-02T00:47:22.223Z,22.49
2018-07-02T00:48:22.199Z,22.49
2018-07-02T00:49:22.184Z,22.44
2018-07-02T00:50:22.128Z,22.46
2018-07-02T00:51:22.116Z,22.43
2018-07-02T00:52:22.094Z,22.43
2018-07-02T00:53:22.045Z,22.32
2018-07-02T00:54:22.003Z,22.41
2018-07-02T00:55:21.982Z,22.28
2018-07-02T00:56:21.949Z,22.31
2018-07-02T00:57:21.917Z,22.27
2018-07-02T00:58:21.886Z,22.19
2018-07-02T00:59:21.868Z,22.17
2018-07-02T01:00:21.837Z,22.12
2018-07-02T01:01:21.801Z,22.17
2018-07-02T01:02:21.783Z,22.13
2018-07-02T01:03:21.750Z,22.04
2018-07-02T01:04:21.706Z,22.14
2018-07-02T01:05:21.702Z,22.19
2018-07-02T01:06:21.653Z,22.13
2018-07-02T01:07:21.635Z,22.17
2018-07-02T01:08:21.589Z,22.10
2018-07-02T01:09:21.812Z,22.16
2018-07-02T01:10:21.525Z,22.10
2018-07-02T01:11:21.504Z,22.02
2018-07-02T01:12:21.463Z,22.10
2018-07-02T01:13:21.445Z,22.01
2018-07-02T01:14:21.420Z,22.12
2018-07-02T01:15:21.432Z,21.94
2018-07-02T01:16:21.358Z,22.04
2018-07-02T01:17:21.318Z,21.95
2018-07-02T01:18:21.309Z,22.02
2018-07-02T01:19:21.290Z,21.95
2018-07-02T01:20:21.223Z,21.98
2018-07-02T01:21:21.233Z,21.98
2018-07-02T01:22:21.169Z,22.07
2018-07-02T01:23:21.148Z,22.07
2018-07-02T01:24:21.098Z,21.91
2018-07-02T01:25:21.085Z,21.99
2018-07-02T01:26:21.099Z,22.07
2018-07-02T01:27:21.011Z,21.98
2018-07-02T01:28:20.984Z,22.04
2018-07-02T01:29:20.982Z,22.10
2018-07-02T01:30:21.267Z,21.97
2018-07-02T01:31:20.887Z,21.95
2018-07-02T01:32:20.864Z,21.82
2018-07-02T01:33:20.868Z,21.83
2018-07-02T01:34:20.802Z,21.76
2018-07-02T01:35:20.780Z,21.75
2018-07-02T01:36:20.763Z,21.61
2018-07-02T01:37:20.730Z,21.59
2018-07-02T01:38:20.679Z,21.63
2018-07-02T01:39:20.655Z,21.51
2018-07-02T01:40:20.627Z,21.54
2018-07-02T01:41:20.592Z,21.57
2018-07-02T01:42:20.558Z,21.45
2018-07-02T01:43:20.528Z,21.53
2018-07-02T01:44:20.495Z,21.59
2018-07-02T01:45:20.504Z,21.50
2018-07-02T01:46:20.439Z,21.56
2018-07-02T01:47:20.562Z,21.53
2018-07-02T01:48:20.379Z,21.51
2018-07-02T01:49:20.351Z,21.51
2018-07-02T01:50:20.316Z,21.59
2018-07-02T01:51:20.282Z,21.57
2018-07-02T01:52:20.263Z,21.51
2018-07-02T01:53:20.248Z,21.50
2018-07-02T01:54:20.205Z,21.50
2018-07-02T01:55:20.158Z,21.51
2018-07-02T01:56:20.131Z,21.44
2018-07-02T01:57:20.104Z,21.45
2018-07-02T01:58:20.070Z,21.46
2018-07-02T01:59:20.039Z,21.54
2018-07-02T02:00:20.015Z,21.54
2018-07-02T02:01:20.047Z,21.50
2018-07-02T02:02:19.945Z,21.61
2018-07-02T02:03:20.075Z,21.50
2018-07-02T02:04:19.884Z,21.48
2018-07-02T02:05:19.854Z,21.57
2018-07-02T02:06:19.869Z,21.57
2018-07-02T02:07:19.799Z,21.54
2018-07-02T02:08:19.762Z,21.50
2018-07-02T02:09:19.883Z,21.46
2018-07-02T02:10:19.700Z,21.48
2018-07-02T02:11:19.700Z,21.54
2018-07-02T02:12:19.642Z,21.51
2018-07-02T02:13:19.660Z,21.51
2018-07-02T02:14:19.587Z,21.48
2018-07-02T02:15:19.561Z,21.51
2018-07-02T02:16:19.554Z,21.38
2018-07-02T02:17:19.526Z,21.44
2018-07-02T02:18:19.472Z,21.41
2018-07-02T02:19:19.433Z,21.44
2018-07-02T02:20:19.402Z,21.39
2018-07-02T02:21:19.374Z,21.32
2018-07-02T02:22:19.360Z,21.27
2018-07-02T02:23:19.334Z,21.35
2018-07-02T02:24:19.273Z,21.34
2018-07-02T02:25:19.255Z,21.19
2018-07-02T02:26:19.216Z,21.24
2018-07-02T02:27:19.181Z,21.30
2018-07-02T02:28:19.178Z,21.35
2018-07-02T02:29:19.183Z,21.35
2018-07-02T02:30:19.101Z,21.32
2018-07-02T02:31:19.065Z,21.41
2018-07-02T02:32:19.033Z,21.36
2018-07-02T02:33:19.001Z,21.42
2018-07-02T02:34:18.962Z,21.39
2018-07-02T02:35:18.941Z,21.39
2018-07-02T02:36:18.910Z,21.35
2018-07-02T02:37:18.884Z,21.36
2018-07-02T02:38:18.896Z,21.44
2018-07-02T02:39:18.815Z,21.38
2018-07-02T02:40:18.779Z,21.41
2018-07-02T02:41:18.767Z,21.41
2018-07-02T02:42:18.714Z,21.46
2018-07-02T02:43:18.682Z,21.42
2018-07-02T02:44:18.652Z,21.41
2018-07-02T02:45:18.630Z,21.39
2018-07-02T02:46:18.599Z,21.38
2018-07-02T02:47:18.560Z,21.29
2018-07-02T02:48:18.528Z,21.20
2018-07-02T02:49:18.497Z,21.23
2018-07-02T02:50:18.486Z,21.24
2018-07-02T02:51:18.541Z,21.14
2018-07-02T02:52:18.408Z,21.16
2018-07-02T02:53:18.383Z,21.16
2018-07-02T02:54:18.346Z,21.13
2018-07-02T02:55:18.313Z,21.23
2018-07-02T02:56:18.282Z,21.26
2018-07-02T02:57:18.253Z,21.27
2018-07-02T02:58:18.226Z,21.26
2018-07-02T02:59:18.189Z,21.23
2018-07-02T03:00:18.159Z,21.26
2018-07-02T03:01:18.170Z,21.26
2018-07-02T03:02:18.147Z,21.21
2018-07-02T03:03:18.066Z,21.16
2018-07-02T03:04:18.037Z,21.17
2018-07-02T03:05:18.007Z,21.14
2018-07-02T03:06:17.981Z,21.17
2018-07-02T03:07:18.208Z,21.13
2018-07-02T03:08:17.925Z,21.01
2018-07-02T03:09:17.881Z,21.06
2018-07-02T03:10:17.854Z,20.98
2018-07-02T03:11:17.834Z,21.06
2018-07-02T03:12:17.788Z,21.13
2018-07-02T03:13:18.009Z,21.20
2018-07-02T03:14:17.727Z,21.16
2018-07-02T03:15:17.698Z,21.20
2018-07-02T03:16:17.664Z,21.11
2018-07-02T03:17:17.655Z,21.11
2018-07-02T03:18:17.609Z,21.16
2018-07-02T03:19:17.576Z,21.17
2018-07-02T03:20:17.611Z,21.09
2018-07-02T03:21:17.513Z,21.01
2018-07-02T03:22:17.480Z,20.96
2018-07-02T03:23:17.446Z,21.02
2018-07-02T03:24:17.669Z,21.06
2018-07-02T03:25:17.389Z,21.11
2018-07-02T03:26:17.361Z,21.08
2018-07-02T03:27:17.334Z,21.14
2018-07-02T03:28:17.296Z,21.16
2018-07-02T03:29:17.266Z,21.17
2018-07-02T03:30:17.235Z,21.20
2018-07-02T03:31:17.199Z,21.16
2018-07-02T03:32:17.204Z,21.17
2018-07-02T03:33:17.155Z,21.19
2018-07-02T03:34:17.109Z,21.24
2018-07-02T03:35:17.081Z,21.26
2018-07-02T03:36:17.047Z,21.21
2018-07-02T03:37:17.017Z,21.21
2018-07-02T03:38:16.982Z,21.17
2018-07-02T03:39:16.953Z,21.16
2018-07-02T03:41:16.897Z,21.19
2018-07-02T03:42:16.864Z,21.06
2018-07-02T03:43:16.830Z,21.11
2018-07-02T03:44:16.800Z,21.11
2018-07-02T03:45:16.769Z,21.13
2018-07-02T03:46:16.733Z,21.08
2018-07-02T03:47:16.704Z,21.17
2018-07-02T03:48:16.679Z,21.19
2018-07-02T03:49:16.648Z,21.20
2018-07-02T03:50:16.613Z,21.17
2018-07-02T03:51:16.580Z,21.19
2018-07-02T03:52:16.547Z,21.11
2018-07-02T03:53:16.535Z,21.14
2018-07-02T03:54:16.498Z,21.06
2018-07-02T03:55:16.560Z,21.13
2018-07-02T03:56:16.426Z,21.01
2018-07-02T03:57:16.398Z,21.01
2018-07-02T03:58:16.366Z,20.89
2018-07-02T03:59:16.337Z,20.87
2018-07-02T04:01:16.306Z,20.87
2018-07-02T04:02:16.244Z,20.90
2018-07-02T04:03:16.211Z,20.86
2018-07-02T04:04:16.189Z,20.93
2018-07-02T04:05:16.151Z,20.93
2018-07-02T04:06:16.116Z,20.91
2018-07-02T04:07:16.085Z,20.81
2018-07-02T04:08:16.066Z,20.86
2018-07-02T04:09:16.024Z,20.91
2018-07-02T04:10:15.991Z,20.90
2018-07-02T04:11:16.116Z,20.99
2018-07-02T04:12:15.933Z,21.05
2018-07-02T04:13:15.901Z,20.93
2018-07-02T04:14:15.905Z,21.04
2018-07-02T04:15:15.836Z,21.05
2018-07-02T04:16:15.819Z,20.95
2018-07-02T04:17:15.981Z,20.87
2018-07-02T04:18:15.750Z,20.84
2018-07-02T04:19:15.711Z,20.83
2018-07-02T04:20:15.680Z,20.95
2018-07-02T04:21:15.663Z,20.90
2018-07-02T04:22:15.620Z,20.84
2018-07-02T04:23:15.597Z,20.89
2018-07-02T04:24:15.560Z,20.89
2018-07-02T04:25:15.533Z,20.87
2018-07-02T04:26:15.535Z,20.87
2018-07-02T04:27:15.465Z,20.96
2018-07-02T04:28:15.684Z,21.01
2018-07-02T04:29:15.409Z,20.99
2018-07-02T04:30:15.374Z,21.04
2018-07-02T04:31:15.342Z,21.04
2018-07-02T04:32:15.313Z,21.09
2018-07-02T04:33:15.274Z,21.05
2018-07-02T04:34:15.260Z,21.04
2018-07-02T04:35:15.216Z,20.99
2018-07-02T04:36:15.186Z,20.89
2018-07-02T04:37:15.155Z,20.83
2018-07-02T04:38:15.121Z,20.76
2018-07-02T04:39:15.192Z,20.62
2018-07-02T04:40:15.062Z,20.62
2018-07-02T04:41:15.028Z,20.56
2018-07-02T04:42:15.004Z,20.50
2018-07-02T04:43:14.962Z,20.54
2018-07-02T04:44:14.931Z,20.50
2018-07-02T04:45:15.155Z,20.42
2018-07-02T04:46:14.892Z,20.39
2018-07-02T04:47:14.839Z,20.46
2018-07-02T04:48:14.807Z,20.34
2018-07-02T04:49:14.778Z,20.33
2018-07-02T04:50:14.749Z,20.20
2018-07-02T04:51:14.720Z,20.28
2018-07-02T04:52:14.686Z,20.20
2018-07-02T04:53:14.650Z,20.25
2018-07-02T04:54:14.631Z,20.13
2018-07-02T04:55:14.594Z,20.15
2018-07-02T04:56:14.761Z,20.10
2018-07-02T04:57:14.527Z,20.03
2018-07-02T04:58:14.499Z,20.06
2018-07-02T04:59:14.466Z,20.16
2018-07-02T05:00:14.432Z,20.03
2018-07-02T05:01:14.403Z,20.05
2018-07-02T05:02:14.376Z,20.08
2018-07-02T05:03:14.338Z,20.15
2018-07-02T05:04:14.308Z,20.08
2018-07-02T05:05:14.287Z,20.05
2018-07-02T05:06:14.247Z,20.12
2018-07-02T05:07:14.417Z,20.09
2018-07-02T05:08:14.181Z,20.10
2018-07-02T05:09:14.160Z,20.10
2018-07-02T05:10:14.120Z,20.06
2018-07-02T05:11:14.090Z,20.09
2018-07-02T05:12:14.056Z,20.10
2018-07-02T05:13:14.234Z,20.05
2018-07-02T05:14:13.992Z,20.06
2018-07-02T05:15:13.968Z,19.97
2018-07-02T05:16:13.930Z,19.94
2018-07-02T05:17:13.901Z,19.98
2018-07-02T05:18:13.873Z,19.90
2018-07-02T05:19:14.135Z,19.83
2018-07-02T05:20:13.807Z,19.87
2018-07-02T05:21:13.775Z,19.84
2018-07-02T05:22:13.742Z,19.69
2018-07-02T05:23:13.716Z,19.70
2018-07-02T05:24:13.713Z,19.68
2018-07-02T05:25:13.648Z,19.73
2018-07-02T05:26:13.617Z,19.69
2018-07-02T05:27:13.583Z,19.70
2018-07-02T05:28:13.561Z,19.68
2018-07-02T05:29:13.545Z,19.69
2018-07-02T05:30:13.494Z,19.68
2018-07-02T05:31:13.467Z,19.69
2018-07-02T05:32:13.428Z,19.68
2018-07-02T05:33:13.394Z,19.66
2018-07-02T05:34:13.365Z,19.66
2018-07-02T05:35:13.330Z,19.70
2018-07-02T05:36:13.301Z,19.70
2018-07-02T05:37:13.271Z,19.69
2018-07-02T05:38:13.236Z,19.68
2018-07-02T05:39:13.207Z,19.72
2018-07-02T05:40:13.175Z,19.66
2018-07-02T05:41:13.140Z,19.69
2018-07-02T05:42:13.209Z,19.73
2018-07-02T05:43:13.097Z,19.66
2018-07-02T05:44:13.047Z,19.66
2018-07-02T05:45:13.016Z,19.58
2018-07-02T05:46:12.985Z,19.65
2018-07-02T05:47:12.952Z,19.57
2018-07-02T05:48:12.924Z,19.47
2018-07-02T05:49:12.888Z,19.69
2018-07-02T05:50:12.855Z,19.58
2018-07-02T05:51:12.825Z,19.54
2018-07-02T05:52:12.794Z,19.46
2018-07-02T05:53:12.778Z,19.47
2018-07-02T05:54:12.730Z,19.42
2018-07-02T05:55:12.697Z,19.46
2018-07-02T05:56:12.668Z,19.40
2018-07-02T05:57:12.634Z,19.40
2018-07-02T05:58:12.606Z,19.40
2018-07-02T05:59:12.602Z,19.36
2018-07-02T06:00:12.575Z,19.43
2018-07-02T06:01:12.619Z,19.42
2018-07-02T06:02:12.475Z,19.46
2018-07-02T06:03:12.445Z,19.48
2018-07-02T06:04:12.411Z,19.42
2018-07-02T06:05:12.391Z,19.38
2018-07-02T06:06:12.354Z,19.32
2018-07-02T06:07:12.320Z,19.28
2018-07-02T06:08:12.288Z,19.36
2018-07-02T06:09:12.254Z,19.33
2018-07-02T06:10:12.243Z,19.28
2018-07-02T06:11:12.197Z,19.29
2018-07-02T06:12:12.154Z,19.31
2018-07-02T06:13:12.162Z,19.33
2018-07-02T06:14:12.095Z,19.32
2018-07-02T06:15:12.068Z,19.29
2018-07-02T06:16:12.033Z,19.33
2018-07-02T06:17:11.999Z,19.31
2018-07-02T06:18:11.976Z,19.46
2018-07-02T06:19:11.935Z,19.42
2018-07-02T06:20:11.915Z,19.35
2018-07-02T06:21:11.878Z,19.36
2018-07-02T06:22:11.842Z,19.39
2018-07-02T06:23:11.804Z,19.24
2018-07-02T06:24:11.778Z,19.32
2018-07-02T06:25:11.749Z,19.35
2018-07-02T06:26:11.707Z,19.32
2018-07-02T06:27:11.677Z,19.28
2018-07-02T06:28:11.731Z,19.28
2018-07-02T06:29:11.627Z,19.29
2018-07-02T06:30:11.584Z,19.29
2018-07-02T06:31:11.553Z,19.23
2018-07-02T06:32:11.617Z,19.23
2018-07-02T06:33:11.489Z,19.25
2018-07-02T06:34:11.454Z,19.21
2018-07-02T06:35:11.427Z,19.23
2018-07-02T06:36:11.391Z,19.25
2018-07-02T06:37:11.356Z,19.18
2018-07-02T06:38:11.325Z,19.13
2018-07-02T06:39:11.297Z,19.15
2018-07-02T06:40:11.263Z,19.14
2018-07-02T06:41:11.226Z,19.10
2018-07-02T06:42:11.197Z,19.06
2018-07-02T06:43:11.164Z,19.02
2018-07-02T06:44:11.134Z,19.06
2018-07-02T06:45:11.100Z,19.08
2018-07-02T06:46:11.070Z,19.02
2018-07-02T06:47:11.436Z,19.08
2018-07-02T06:48:11.002Z,18.95
2018-07-02T06:49:10.973Z,19.08
2018-07-02T06:50:10.975Z,19.10
2018-07-02T06:51:10.909Z,18.99
2018-07-02T06:52:10.881Z,19.08
2018-07-02T06:53:11.040Z,19.01
2018-07-02T06:54:10.814Z,18.99
2018-07-02T06:55:10.777Z,19.10
2018-07-02T06:56:10.756Z,19.11
2018-07-02T06:57:10.718Z,19.02
2018-07-02T06:58:10.690Z,19.11
2018-07-02T06:59:10.649Z,19.05
2018-07-02T07:00:10.630Z,18.94
2018-07-02T07:01:10.598Z,19.02
2018-07-02T07:02:10.552Z,18.98
2018-07-02T07:03:10.874Z,18.98
2018-07-02T07:04:10.487Z,18.95
2018-07-02T07:05:10.465Z,18.92
2018-07-02T07:06:10.424Z,18.90
2018-07-02T07:07:10.393Z,18.94
2018-07-02T07:08:10.367Z,18.97
2018-07-02T07:09:10.331Z,18.94
2018-07-02T07:10:10.296Z,18.87
2018-07-02T07:11:10.268Z,18.92
2018-07-02T07:12:10.236Z,18.84
2018-07-02T07:13:10.198Z,18.94
2018-07-02T07:14:10.267Z,18.90
2018-07-02T07:15:10.134Z,18.94
2018-07-02T07:16:10.106Z,18.95
2018-07-02T07:17:10.098Z,18.94
2018-07-02T07:18:10.043Z,18.92
2018-07-02T07:19:10.004Z,18.95
2018-07-02T07:20:10.380Z,18.82
2018-07-02T07:21:09.941Z,18.83
2018-07-02T07:22:09.908Z,18.82
2018-07-02T07:23:09.876Z,18.80
2018-07-02T07:24:09.847Z,18.79
2018-07-02T07:25:09.820Z,18.82
2018-07-02T07:26:09.891Z,18.79
2018-07-02T07:27:09.751Z,18.83
2018-07-02T07:28:09.724Z,18.76
2018-07-02T07:29:09.682Z,18.79
2018-07-02T07:30:09.648Z,18.76
2018-07-02T07:31:09.629Z,18.83
2018-07-02T07:32:09.582Z,18.82
2018-07-02T07:33:09.550Z,18.77
2018-07-02T07:34:09.520Z,18.72
2018-07-02T07:35:09.490Z,18.77
2018-07-02T07:36:09.453Z,18.70
2018-07-02T07:37:09.422Z,18.79
2018-07-02T07:38:09.390Z,18.80
2018-07-02T07:39:09.362Z,18.83
2018-07-02T07:40:09.330Z,18.74
2018-07-02T07:41:09.292Z,18.82
2018-07-02T07:42:09.662Z,18.82
2018-07-02T07:43:09.235Z,18.84
2018-07-02T07:44:09.199Z,18.87
2018-07-02T07:45:09.257Z,18.91
2018-07-02T07:46:09.129Z,18.86
2018-07-02T07:47:09.099Z,18.90
2018-07-02T07:48:09.068Z,18.91
2018-07-02T07:49:09.032Z,18.86
2018-07-02T07:50:08.999Z,18.90
2018-07-02T07:51:08.966Z,18.86
2018-07-02T07:52:08.942Z,18.90
2018-07-02T07:53:08.950Z,18.84
2018-07-02T07:54:08.870Z,18.80
2018-07-02T07:55:08.837Z,18.90
2018-07-02T07:56:08.848Z,18.83
2018-07-02T07:57:08.777Z,18.83
2018-07-02T07:58:08.738Z,18.82
2018-07-02T07:59:08.718Z,18.83
2018-07-02T08:00:08.675Z,18.87
2018-07-02T08:01:08.651Z,18.82
2018-07-02T08:02:08.619Z,18.82
2018-07-02T08:03:08.577Z,18.77
2018-07-02T08:04:08.555Z,18.77
2018-07-02T08:05:08.551Z,18.74
2018-07-02T08:06:08.489Z,18.80
2018-07-02T08:07:08.449Z,18.79
2018-07-02T08:08:08.416Z,18.72
2018-07-02T08:09:08.390Z,18.77
2018-07-02T08:10:08.353Z,18.65
2018-07-02T08:11:08.320Z,18.65
2018-07-02T08:12:08.289Z,18.68
2018-07-02T08:13:08.256Z,18.61
2018-07-02T08:14:08.219Z,18.67
2018-07-02T08:15:08.388Z,18.62
2018-07-02T08:16:08.158Z,18.68
2018-07-02T08:17:08.129Z,18.64
2018-07-02T08:18:08.092Z,18.67
2018-07-02T08:19:08.065Z,18.64
2018-07-02T08:20:08.040Z,18.65
2018-07-02T08:21:08.194Z,18.72
2018-07-02T08:22:07.965Z,18.77
2018-07-02T08:23:07.940Z,18.80
2018-07-02T08:24:07.893Z,18.74
2018-07-02T08:25:07.862Z,18.80
2018-07-02T08:26:07.828Z,18.68
2018-07-02T08:27:07.797Z,18.79
2018-07-02T08:28:07.769Z,18.73
2018-07-02T08:29:07.737Z,18.74
2018-07-02T08:30:07.713Z,18.76
2018-07-02T08:31:07.671Z,18.65
2018-07-02T08:32:07.634Z,18.72
2018-07-02T08:33:07.609Z,18.68
2018-07-02T08:34:07.568Z,18.65
2018-07-02T08:35:07.536Z,18.68
2018-07-02T08:36:07.502Z,18.70
2018-07-02T08:37:07.485Z,18.68
2018-07-02T08:38:07.438Z,18.79
2018-07-02T08:39:07.409Z,18.76
2018-07-02T08:40:07.373Z,18.82
2018-07-02T08:41:07.347Z,18.79
2018-07-02T08:42:07.309Z,18.79
2018-07-02T08:43:07.276Z,18.83
2018-07-02T08:44:07.252Z,18.82
2018-07-02T08:45:07.229Z,18.86
2018-07-02T08:46:07.181Z,18.83
2018-07-02T08:47:07.160Z,18.83
2018-07-02T08:48:07.512Z,18.87
2018-07-02T08:49:07.078Z,18.98
2018-07-02T08:50:07.054Z,18.98
2018-07-02T08:51:07.016Z,18.99
2018-07-02T08:52:06.982Z,18.99
2018-07-02T08:53:06.948Z,19.01
2018-07-02T08:54:07.116Z,18.99
2018-07-02T08:55:06.882Z,19.05
2018-07-02T08:56:06.850Z,19.08
2018-07-02T08:57:06.823Z,18.95
2018-07-02T08:58:06.784Z,19.02
2018-07-02T08:59:06.753Z,18.95
2018-07-02T09:00:06.723Z,18.99
2018-07-02T09:01:06.686Z,18.99
2018-07-02T09:02:06.667Z,18.97
2018-07-02T09:03:06.624Z,19.08
2018-07-02T09:04:06.590Z,18.98
2018-07-02T09:05:06.762Z,18.95
2018-07-02T09:06:06.524Z,18.87
2018-07-02T09:07:06.498Z,18.87
2018-07-02T09:08:06.466Z,18.83
2018-07-02T09:09:06.428Z,18.83
2018-07-02T09:10:06.393Z,18.79
2018-07-02T09:11:06.394Z,18.68
2018-07-02T09:12:06.325Z,18.79
2018-07-02T09:13:06.305Z,18.80
2018-07-02T09:14:06.264Z,18.82
2018-07-02T09:15:06.232Z,18.79
2018-07-02T09:16:06.355Z,18.80
2018-07-02T09:17:06.166Z,18.79
2018-07-02T09:18:06.131Z,18.77
2018-07-02T09:19:06.099Z,18.76
2018-07-02T09:20:06.067Z,18.77
2018-07-02T09:21:06.048Z,18.77
2018-07-02T09:22:06.003Z,18.80
2018-07-02T09:23:05.968Z,18.76
2018-07-02T09:24:05.937Z,18.61
2018-07-02T09:25:05.904Z,18.64
2018-07-02T09:26:05.869Z,18.65
2018-07-02T09:27:05.839Z,18.62
2018-07-02T09:28:05.807Z,18.64
2018-07-02T09:29:05.774Z,18.70
2018-07-02T09:30:05.737Z,18.64
2018-07-02T09:31:05.704Z,18.62
2018-07-02T09:32:05.670Z,18.68
2018-07-02T09:33:05.639Z,18.61
2018-07-02T09:34:05.611Z,18.73
2018-07-02T09:35:05.576Z,18.68
2018-07-02T09:36:05.544Z,18.76
2018-07-02T09:37:05.509Z,18.74
2018-07-02T09:38:05.581Z,18.77
2018-07-02T09:39:05.502Z,18.80
2018-07-02T09:40:05.417Z,18.70
2018-07-02T09:41:05.380Z,18.74
2018-07-02T09:42:05.351Z,18.79
2018-07-02T09:43:05.315Z,18.80
2018-07-02T09:44:05.277Z,18.79
2018-07-02T09:45:05.246Z,18.82
2018-07-02T09:46:05.215Z,18.84
2018-07-02T09:47:05.180Z,18.90
2018-07-02T09:48:05.174Z,18.86
2018-07-02T09:49:05.415Z,18.83
2018-07-02T09:50:05.084Z,18.82
2018-07-02T09:51:05.057Z,18.83
2018-07-02T09:52:05.017Z,18.79
2018-07-02T09:53:04.988Z,18.80
2018-07-02T09:54:04.959Z,18.68
2018-07-02T09:55:05.169Z,18.72
2018-07-02T09:56:04.886Z,18.72
2018-07-02T09:57:04.904Z,18.67
2018-07-02T09:58:04.819Z,18.68
2018-07-02T09:59:04.806Z,18.72
2018-07-02T10:00:04.756Z,18.59
2018-07-02T10:01:04.725Z,18.61
2018-07-02T10:02:04.688Z,18.65
2018-07-02T10:03:04.660Z,18.62
2018-07-02T10:04:04.625Z,18.61
2018-07-02T10:05:04.593Z,18.68
2018-07-02T10:06:04.811Z,18.70
2018-07-02T10:07:04.524Z,18.64
2018-07-02T10:08:04.617Z,18.72
2018-07-02T10:09:04.461Z,18.65
2018-07-02T10:10:04.432Z,18.54
2018-07-02T10:11:04.396Z,18.68
2018-07-02T10:12:04.362Z,18.64
2018-07-02T10:13:04.334Z,18.59
2018-07-02T10:14:04.310Z,18.57
2018-07-02T10:15:04.272Z,18.49
2018-07-02T10:16:04.250Z,18.55
2018-07-02T10:17:04.206Z,18.58
2018-07-02T10:18:04.166Z,18.50
2018-07-02T10:19:04.172Z,18.59
2018-07-02T10:20:04.101Z,18.52
2018-07-02T10:21:04.115Z,18.59
2018-07-02T10:22:04.041Z,18.59
2018-07-02T10:23:04.008Z,18.76
2018-07-02T10:24:03.976Z,18.73
2018-07-02T10:25:03.955Z,18.86
2018-07-02T10:26:03.914Z,18.87
2018-07-02T10:27:03.923Z,19.01
2018-07-02T10:28:03.844Z,19.01
2018-07-02T10:29:03.825Z,19.05
2018-07-02T10:30:03.782Z,19.08
2018-07-02T10:31:03.792Z,19.13
2018-07-02T10:32:03.713Z,19.10
2018-07-02T10:33:03.680Z,19.11
2018-07-02T10:34:03.649Z,19.20
2018-07-02T10:35:03.613Z,19.24
2018-07-02T10:36:03.584Z,19.38
2018-07-02T10:37:03.550Z,19.32
2018-07-02T10:38:03.718Z,19.47
2018-07-02T10:39:03.496Z,19.51
2018-07-02T10:40:03.515Z,19.48
2018-07-02T10:41:03.432Z,19.53
2018-07-02T10:42:03.395Z,19.51
2018-07-02T10:43:03.356Z,19.66
2018-07-02T10:44:03.330Z,19.60
2018-07-02T10:45:03.302Z,19.53
2018-07-02T10:46:03.260Z,19.48
2018-07-02T10:47:03.238Z,19.65
2018-07-02T10:48:03.229Z,19.66
2018-07-02T10:49:03.168Z,19.54
2018-07-02T10:50:03.133Z,19.66
2018-07-02T10:51:03.105Z,19.70
2018-07-02T10:52:03.072Z,19.72
2018-07-02T10:53:03.041Z,19.66
2018-07-02T10:54:03.006Z,19.72
2018-07-02T10:55:03.128Z,19.69
2018-07-02T10:56:02.944Z,19.68
2018-07-02T10:57:02.910Z,19.76
2018-07-02T10:58:02.879Z,19.86
2018-07-02T10:59:02.848Z,19.84
2018-07-02T11:00:03.120Z,19.88
2018-07-02T11:01:02.783Z,19.93
2018-07-02T11:02:02.757Z,19.98
2018-07-02T11:03:02.727Z,20.08
2018-07-02T11:04:02.692Z,20.09
2018-07-02T11:05:02.661Z,20.15
2018-07-02T11:06:02.628Z,20.16
2018-07-02T11:07:02.597Z,20.16
2018-07-02T11:08:02.568Z,20.21
2018-07-02T11:09:02.535Z,20.13
2018-07-02T11:10:02.515Z,20.13
2018-07-02T11:11:02.625Z,20.23
2018-07-02T11:12:02.458Z,20.27
2018-07-02T11:13:02.436Z,20.28
2018-07-02T11:14:02.405Z,20.35
2018-07-02T11:15:02.359Z,20.41
2018-07-02T11:16:02.325Z,20.43
2018-07-02T11:17:02.363Z,20.43
2018-07-02T11:18:02.267Z,20.49
2018-07-02T11:19:02.228Z,20.56
2018-07-02T11:20:02.193Z,20.54
2018-07-02T11:21:02.163Z,20.65
2018-07-02T11:22:02.134Z,20.66
2018-07-02T11:23:02.102Z,20.64
2018-07-02T11:24:02.125Z,20.72
2018-07-02T11:25:02.036Z,20.81
2018-07-02T11:26:02.004Z,20.77
2018-07-02T11:27:01.972Z,20.90
2018-07-02T11:28:01.945Z,20.83
2018-07-02T11:29:01.917Z,20.86
2018-07-02T11:30:01.887Z,20.99
2018-07-02T11:31:01.850Z,20.93
2018-07-02T11:32:01.821Z,21.06
2018-07-02T11:33:01.788Z,21.14
2018-07-02T11:34:01.768Z,21.16
2018-07-02T11:35:01.735Z,21.24
2018-07-02T11:36:01.711Z,21.26
2018-07-02T11:37:01.669Z,21.24
2018-07-02T11:38:01.639Z,21.27
2018-07-02T11:39:01.603Z,21.36
2018-07-02T11:40:01.580Z,21.30
2018-07-02T11:41:01.545Z,21.34
2018-07-02T11:42:01.516Z,21.44
2018-07-02T11:43:01.631Z,21.41
2018-07-02T11:44:01.452Z,21.50
2018-07-02T11:45:01.435Z,21.48
2018-07-02T11:46:01.390Z,21.51
2018-07-02T11:47:01.370Z,21.56
2018-07-02T11:48:01.337Z,21.64
2018-07-02T11:49:01.455Z,21.72
2018-07-02T11:50:01.272Z,21.72
2018-07-02T11:51:01.243Z,21.75
2018-07-02T11:52:01.216Z,21.82
2018-07-02T11:53:01.178Z,21.81
2018-07-02T11:54:01.151Z,21.92
2018-07-02T11:55:01.368Z,21.95
2018-07-02T11:56:01.087Z,22.02
2018-07-02T11:57:01.072Z,22.02
2018-07-02T11:58:01.029Z,22.06
2018-07-02T11:59:00.998Z,22.12
2018-07-02T12:00:00.983Z,22.16
2018-07-02T12:01:01.297Z,22.23
2018-07-02T12:02:00.964Z,22.17
2018-07-02T12:03:00.886Z,22.19
2018-07-02T12:04:00.870Z,22.22
2018-07-02T12:05:00.830Z,22.20
2018-07-02T12:06:00.810Z,22.27
2018-07-02T12:07:00.765Z,22.28
2018-07-02T12:08:00.728Z,22.37
2018-07-02T12:09:00.705Z,22.35
2018-07-02T12:10:00.739Z,22.34
2018-07-02T12:11:00.635Z,22.43
2018-07-02T12:12:00.624Z,22.43
2018-07-02T12:13:00.597Z,22.44
2018-07-02T12:14:00.552Z,22.44
2018-07-02T12:15:00.517Z,22.47
2018-07-02T12:16:00.801Z,22.54
2018-07-02T12:17:00.500Z,22.56
2018-07-02T12:18:00.437Z,22.47
2018-07-02T12:19:00.399Z,22.54
2018-07-02T12:20:00.380Z,22.65
2018-07-02T12:21:00.434Z,22.60
2018-07-02T12:22:00.463Z,22.64
2018-07-02T12:23:00.298Z,22.59
2018-07-02T12:24:00.270Z,22.69
2018-07-02T12:25:00.305Z,22.68
2018-07-02T12:26:00.196Z,22.72
2018-07-02T12:27:00.175Z,22.65
2018-07-02T12:28:00.188Z,22.72
2018-07-02T12:29:00.105Z,22.75
2018-07-02T12:30:00.083Z,22.74
2018-07-02T12:31:00.044Z,22.75
2018-07-02T12:32:00.012Z,22.78
2018-07-02T12:33:00.009Z,22.83
2018-07-02T12:33:59.968Z,22.83
2018-07-02T12:34:59.938Z,22.83
2018-07-02T12:35:59.900Z,22.86
2018-07-02T12:36:59.868Z,22.90
2018-07-02T12:37:59.839Z,22.90
2018-07-02T12:38:59.814Z,22.90
2018-07-02T12:39:59.780Z,22.86
2018-07-02T12:40:59.754Z,22.92
2018-07-02T12:41:59.752Z,22.92
2018-07-02T12:42:59.762Z,22.90
2018-07-02T12:44:00.030Z,22.96
2018-07-02T12:44:59.630Z,22.94
2018-07-02T12:45:59.607Z,22.97
2018-07-02T12:46:59.571Z,23.07
2018-07-02T12:47:59.540Z,23.01
2018-07-02T12:48:59.520Z,23.08
2018-07-02T12:49:59.497Z,23.08
2018-07-02T12:50:59.466Z,23.09
2018-07-02T12:51:59.425Z,23.11
2018-07-02T12:52:59.413Z,23.07
2018-07-02T12:53:59.411Z,23.11